createdAt,value
2022-09-04T00:02:06.664Z,23.70
2022-09-04T00:05:03.208Z,23.80
2022-09-04T00:07:39.139Z,23.50
2022-09-04T00:10:17.968Z,23.60
2022-09-04T00:12:57.596Z,23.70
2022-09-04T00:15:36.315Z,23.30
2022-09-04T00:18:51.087Z,23.30
2022-09-04T00:21:54.616Z,23.50
2022-09-04T00:24:39.166Z,23.40
2022-09-04T00:27:25.944Z,23.50
2022-09-04T00:30:02.581Z,23.60
2022-09-04T00:33:06.754Z,23.70
2022-09-04T00:35:47.487Z,23.70
2022-09-04T00:38:28.144Z,23.80
2022-09-04T00:41:33.340Z,23.70
2022-09-04T00:44:01.780Z,23.70
2022-09-04T00:46:45.525Z,23.60
2022-09-04T00:49:38.551Z,23.50
2022-09-04T00:52:58.533Z,23.60
2022-09-04T00:55:39.801Z,23.70
2022-09-04T00:58:32.327Z,23.70
2022-09-04T01:01:01.608Z,23.70
2022-09-04T01:03:48.476Z,23.70
2022-09-04T01:06:49.305Z,23.50
2022-09-04T01:09:44.925Z,23.50
2022-09-04T01:12:13.456Z,23.40
2022-09-04T01:15:00.816Z,23.40
2022-09-04T01:17:43.224Z,23.40
2022-09-04T01:20:38.868Z,23.50
2022-09-04T01:23:27.053Z,23.40
2022-09-04T01:26:19.795Z,23.40
2022-09-04T01:29:18.885Z,23.30
2022-09-04T01:32:31.836Z,23.40
2022-09-04T01:35:32.392Z,23.40
2022-09-04T01:38:23.720Z,23.50
2022-09-04T01:41:25.532Z,23.40
2022-09-04T01:43:54.483Z,23.30
2022-09-04T01:46:56.457Z,23.30
2022-09-04T01:49:32.712Z,23.40
2022-09-04T01:52:03.887Z,23.40
2022-09-04T01:55:07.636Z,23.30
2022-09-04T01:58:00.392Z,23.30
2022-09-04T02:00:34.884Z,23.20
2022-09-04T02:03:18.820Z,23.40
2022-09-04T02:06:20.509Z,23.20
2022-09-04T02:09:12.813Z,23.10
2022-09-04T02:11:49.781Z,22.90
2022-09-04T02:14:57.773Z,23.00
2022-09-04T02:17:36.915Z,22.80
2022-09-04T02:20:31.328Z,22.80
2022-09-04T02:23:36.135Z,22.70
2022-09-04T02:26:25.054Z,22.60
2022-09-04T02:29:14.878Z,22.50
2022-09-04T02:32:05.202Z,22.30
2022-09-04T02:35:02.371Z,22.30
2022-09-04T02:37:39.882Z,22.10
2022-09-04T02:40:27.698Z,21.90
2022-09-04T02:43:17.783Z,21.80
2022-09-04T02:45:56.664Z,21.60
2022-09-04T02:49:03.112Z,21.40
2022-09-04T02:52:02.639Z,21.30
2022-09-04T02:54:38.078Z,21.20
2022-09-04T02:57:28.988Z,21.10
2022-09-04T03:00:18.188Z,21.30
2022-09-04T03:03:19.993Z,21.20
2022-09-04T03:06:00.364Z,20.80
2022-09-04T03:08:49.502Z,20.60
2022-09-04T03:11:55.093Z,20.60
2022-09-04T03:14:36.868Z,20.50
2022-09-04T03:17:48.016Z,20.40
2022-09-04T03:20:32.955Z,20.30
2022-09-04T03:23:21.615Z,20.20
2022-09-04T03:26:01.965Z,20.10
2022-09-04T03:28:36.480Z,20.10
2022-09-04T03:31:34.161Z,19.90
2022-09-04T03:34:18.064Z,19.90
2022-09-04T03:36:56.550Z,19.80
2022-09-04T03:39:50.569Z,19.80
2022-09-04T03:42:37.340Z,19.70
2022-09-04T03:45:28.146Z,19.70
2022-09-04T03:48:15.584Z,19.50
2022-09-04T03:51:15.430Z,19.50
2022-09-04T03:54:17.575Z,19.40
2022-09-04T03:56:52.067Z,19.40
2022-09-04T03:59:53.230Z,19.30
2022-09-04T04:02:51.485Z,19.30
2022-09-04T04:05:42.112Z,19.30
2022-09-04T04:08:36.436Z,19.50
2022-09-04T04:11:44.294Z,19.50
2022-09-04T04:14:40.240Z,19.40
2022-09-04T04:17:36.179Z,19.30
2022-09-04T04:20:23.095Z,19.30
2022-09-04T04:23:16.312Z,19.40
2022-09-04T04:26:06.119Z,19.30
2022-09-04T04:28:57.090Z,19.10
2022-09-04T04:32:14.455Z,19.10
2022-09-04T04:34:49.715Z,19.10
2022-09-04T04:37:36.766Z,19.00
2022-09-04T04:40:24.967Z,18.90
2022-09-04T04:43:19.131Z,18.80
2022-09-04T04:45:59.445Z,18.90
2022-09-04T04:49:00.307Z,18.80
2022-09-04T04:51:43.411Z,18.80
2022-09-04T04:54:39.076Z,18.80
2022-09-04T04:57:36.244Z,18.80
2022-09-04T05:00:12.575Z,18.90
2022-09-04T05:03:28.956Z,19.00
2022-09-04T05:06:20.177Z,19.10
2022-09-04T05:09:20.412Z,19.20
2022-09-04T05:11:52.363Z,18.90
2022-09-04T05:14:55.945Z,18.70
2022-09-04T05:17:57.458Z,18.60
2022-09-04T05:20:56.458Z,18.50
2022-09-04T05:23:59.236Z,18.40
2022-09-04T05:26:47.392Z,18.40
2022-09-04T05:29:39.582Z,18.40
2022-09-04T05:32:26.635Z,18.30
2022-09-04T05:35:19.856Z,18.20
2022-09-04T05:38:15.030Z,18.20
2022-09-04T05:41:10.055Z,18.30
2022-09-04T05:44:15.523Z,18.30
2022-09-04T05:47:17.707Z,18.30
2022-09-04T05:50:11.132Z,18.00
2022-09-04T05:52:57.768Z,18.00
2022-09-04T05:55:32.808Z,18.00
2022-09-04T05:58:18.610Z,17.90
2022-09-04T06:01:24.351Z,17.80
2022-09-04T06:04:23.351Z,17.80
2022-09-04T06:07:18.942Z,17.60
2022-09-04T06:10:12.280Z,17.50
2022-09-04T06:13:08.915Z,17.60
2022-09-04T06:16:10.804Z,17.70
2022-09-04T06:19:08.323Z,17.70
2022-09-04T06:21:47.090Z,17.50
2022-09-04T06:24:30.734Z,17.40
2022-09-04T06:27:28.412Z,17.30
2022-09-04T06:30:12.039Z,17.30
2022-09-04T06:33:01.847Z,17.40
2022-09-04T06:35:56.261Z,17.40
2022-09-04T06:38:31.509Z,17.40
2022-09-04T06:41:11.634Z,17.40
2022-09-04T06:43:58.247Z,17.40
2022-09-04T06:46:34.012Z,17.30
2022-09-04T06:49:22.369Z,17.20
2022-09-04T06:52:20.796Z,17.20
2022-09-04T06:55:34.462Z,17.20
2022-09-04T06:58:16.699Z,17.30
2022-09-04T07:01:27.109Z,17.30
2022-09-04T07:04:13.935Z,17.40
2022-09-04T07:07:07.187Z,17.40
2022-09-04T07:09:53.353Z,17.30
2022-09-04T07:12:37.222Z,17.40
2022-09-04T07:15:18.846Z,17.40
2022-09-04T07:18:11.351Z,17.40
2022-09-04T07:20:42.921Z,17.50
2022-09-04T07:23:40.244Z,17.40
2022-09-04T07:26:38.691Z,17.40
2022-09-04T07:29:38.455Z,17.30
2022-09-04T07:32:21.014Z,17.40
2022-09-04T07:35:01.881Z,17.30
2022-09-04T07:37:48.589Z,17.30
2022-09-04T07:40:30.950Z,17.30
2022-09-04T07:43:42.371Z,17.30
2022-09-04T07:46:49.320Z,17.40
2022-09-04T07:49:38.058Z,17.40
2022-09-04T07:52:12.259Z,17.30
2022-09-04T07:54:49.672Z,17.00
2022-09-04T07:57:50.772Z,16.80
2022-09-04T08:00:23.451Z,16.60
2022-09-04T08:03:12.735Z,16.40
2022-09-04T08:06:14.918Z,16.50
2022-09-04T08:09:20.336Z,16.60
2022-09-04T08:12:08.597Z,16.80
2022-09-04T08:14:50.430Z,16.80
2022-09-04T08:17:59.928Z,16.90
2022-09-04T08:20:43.592Z,16.80
2022-09-04T08:23:50.186Z,16.70
2022-09-04T08:26:33.574Z,16.60
2022-09-04T08:29:01.900Z,16.30
2022-09-04T08:31:59.252Z,16.40
2022-09-04T08:34:39.719Z,16.50
2022-09-04T08:37:17.502Z,16.40
2022-09-04T08:40:34.038Z,16.20
2022-09-04T08:43:24.044Z,16.30
2022-09-04T08:46:17.862Z,16.40
2022-09-04T08:49:19.172Z,16.40
2022-09-04T08:52:03.356Z,16.10
2022-09-04T08:55:04.083Z,16.10
2022-09-04T08:57:51.350Z,16.10
2022-09-04T09:00:36.375Z,16.20
2022-09-04T09:03:31.120Z,16.20
2022-09-04T09:06:21.639Z,16.20
2022-09-04T09:09:20.674Z,16.20
2022-09-04T09:12:09.911Z,16.20
2022-09-04T09:14:42.653Z,16.30
2022-09-04T09:17:34.790Z,16.30
2022-09-04T09:20:28.272Z,16.30
2022-09-04T09:23:20.325Z,16.30
2022-09-04T09:25:51.848Z,16.20
2022-09-04T09:28:52.884Z,16.20
2022-09-04T09:31:55.340Z,16.20
2022-09-04T09:34:35.732Z,16.10
2022-09-04T09:37:33.706Z,16.10
2022-09-04T09:40:32.613Z,16.10
2022-09-04T09:43:42.866Z,16.20
2022-09-04T09:46:29.627Z,16.10
2022-09-04T09:49:15.037Z,16.20
2022-09-04T09:52:08.236Z,16.10
2022-09-04T09:54:57.934Z,16.20
2022-09-04T09:58:03.487Z,16.20
2022-09-04T10:00:53.159Z,16.10
2022-09-04T10:03:48.468Z,16.00
2022-09-04T10:06:25.971Z,16.10
2022-09-04T10:09:44.142Z,16.10
2022-09-04T10:12:18.322Z,16.10
2022-09-04T10:15:20.746Z,16.10
2022-09-04T10:18:16.900Z,16.10
2022-09-04T10:21:24.301Z,16.20
2022-09-04T10:24:06.277Z,16.20
2022-09-04T10:26:59.150Z,16.20
2022-09-04T10:29:59.672Z,16.20
2022-09-04T10:32:33.957Z,16.20
2022-09-04T10:35:17.389Z,16.10
2022-09-04T10:38:07.243Z,16.00
2022-09-04T10:41:12.606Z,15.90
2022-09-04T10:44:11.641Z,15.90
2022-09-04T10:47:11.860Z,15.80
2022-09-04T10:49:50.352Z,15.60
2022-09-04T10:52:44.652Z,15.70
2022-09-04T10:55:32.344Z,15.80
2022-09-04T10:58:28.436Z,15.80
2022-09-04T11:01:20.166Z,15.80
2022-09-04T11:04:04.259Z,15.90
2022-09-04T11:06:38.583Z,15.90
2022-09-04T11:09:23.351Z,15.90
2022-09-04T11:11:54.846Z,15.90
2022-09-04T11:14:50.584Z,15.90
2022-09-04T11:17:41.780Z,15.90
2022-09-04T11:20:17.673Z,15.80
2022-09-04T11:23:23.156Z,15.60
2022-09-04T11:26:28.794Z,15.40
2022-09-04T11:29:13.296Z,15.50
2022-09-04T11:32:01.382Z,15.60
2022-09-04T11:34:39.902Z,15.60
2022-09-04T11:37:34.681Z,15.60
2022-09-04T11:40:11.009Z,15.70
2022-09-04T11:43:16.190Z,15.70
2022-09-04T11:46:20.712Z,15.70
2022-09-04T11:48:51.857Z,15.70
2022-09-04T11:51:41.741Z,15.70
2022-09-04T11:54:47.455Z,15.70
2022-09-04T11:57:35.324Z,15.70
2022-09-04T12:00:12.141Z,15.50
2022-09-04T12:02:41.750Z,15.50
2022-09-04T12:05:43.153Z,15.50
2022-09-04T12:08:36.742Z,15.40
2022-09-04T12:11:05.076Z,15.20
2022-09-04T12:13:44.786Z,15.20
2022-09-04T12:16:13.454Z,15.20
2022-09-04T12:19:10.349Z,15.20
2022-09-04T12:22:03.600Z,15.00
2022-09-04T12:25:01.469Z,14.90
2022-09-04T12:27:48.167Z,14.90
2022-09-04T12:30:38.291Z,14.90
2022-09-04T12:33:48.101Z,15.00
2022-09-04T12:36:25.041Z,15.00
2022-09-04T12:39:34.970Z,14.80
2022-09-04T12:42:23.047Z,14.70
2022-09-04T12:45:23.192Z,14.60
2022-09-04T12:47:58.894Z,14.70
2022-09-04T12:50:41.754Z,14.70
2022-09-04T12:53:16.015Z,14.80
2022-09-04T12:56:01.510Z,14.80
2022-09-04T12:59:00.185Z,14.70
2022-09-04T13:02:00.404Z,14.70
2022-09-04T13:04:56.600Z,14.80
2022-09-04T13:07:57.288Z,14.80
2022-09-04T13:10:38.291Z,14.70
2022-09-04T13:13:06.586Z,14.70
2022-09-04T13:15:51.988Z,14.60
2022-09-04T13:18:52.558Z,14.80
2022-09-04T13:21:30.042Z,14.80
2022-09-04T13:24:26.325Z,14.80
2022-09-04T13:27:11.059Z,14.90
2022-09-04T13:30:03.318Z,14.90
2022-09-04T13:32:56.667Z,14.80
2022-09-04T13:35:43.413Z,14.80
2022-09-04T13:38:30.295Z,14.80
2022-09-04T13:41:35.388Z,14.70
2022-09-04T13:44:24.725Z,14.70
2022-09-04T13:47:32.042Z,14.50
2022-09-04T13:50:10.920Z,14.60
2022-09-04T13:53:05.503Z,14.60
2022-09-04T13:55:39.656Z,14.50
2022-09-04T13:58:28.288Z,14.70
2022-09-04T14:01:01.208Z,14.70
2022-09-04T14:03:38.755Z,14.80
2022-09-04T14:06:11.198Z,15.00
2022-09-04T14:08:40.641Z,15.10
2022-09-04T14:11:47.676Z,14.90
2022-09-04T14:14:44.818Z,14.80
2022-09-04T14:17:13.476Z,15.00
2022-09-04T14:20:05.611Z,15.20
2022-09-04T14:22:56.764Z,15.30
2022-09-04T14:25:59.712Z,15.50
2022-09-04T14:28:51.462Z,15.40
2022-09-04T14:31:42.130Z,15.60
2022-09-04T14:34:39.752Z,15.80
2022-09-04T14:37:54.070Z,15.90
2022-09-04T14:40:46.749Z,16.10
2022-09-04T14:43:36.421Z,16.20
2022-09-04T14:46:27.213Z,16.30
2022-09-04T14:49:07.195Z,16.40
2022-09-04T14:51:46.782Z,16.50
2022-09-04T14:54:25.400Z,16.60
2022-09-04T14:57:02.989Z,16.80
2022-09-04T14:59:44.929Z,16.90
2022-09-04T15:02:13.349Z,17.10
2022-09-04T15:04:52.846Z,17.20
2022-09-04T15:07:33.662Z,17.40
2022-09-04T15:10:22.165Z,17.60
2022-09-04T15:13:12.116Z,17.70
2022-09-04T15:15:47.849Z,17.70
2022-09-04T15:18:24.451Z,17.70
2022-09-04T15:21:06.695Z,17.60
2022-09-04T15:23:48.718Z,17.60
2022-09-04T15:26:30.809Z,17.90
2022-09-04T15:29:28.030Z,18.10
2022-09-04T15:32:13.822Z,18.30
2022-09-04T15:34:43.476Z,18.30
2022-09-04T15:37:14.432Z,18.30
2022-09-04T15:39:52.278Z,18.50
2022-09-04T15:42:39.200Z,18.70
2022-09-04T15:45:23.786Z,19.00
2022-09-04T15:48:26.544Z,19.50
2022-09-04T15:51:25.037Z,21.10
2022-09-04T15:54:11.567Z,22.30
2022-09-04T15:57:09.295Z,23.60
2022-09-04T15:59:50.619Z,24.70
2022-09-04T16:02:37.015Z,25.40
2022-09-04T16:05:23.085Z,26.10
2022-09-04T16:08:11.213Z,27.70
2022-09-04T16:10:54.147Z,27.80
2022-09-04T16:13:28.922Z,29.30
2022-09-04T16:16:10.483Z,29.20
2022-09-04T16:18:59.380Z,29.20
2022-09-04T16:21:45.257Z,28.00
2022-09-04T16:24:19.062Z,29.10
2022-09-04T16:26:54.457Z,28.00
2022-09-04T16:29:27.782Z,27.30
2022-09-04T16:31:58.580Z,26.50
2022-09-04T16:34:33.200Z,26.70
2022-09-04T16:37:22.719Z,26.70
2022-09-04T16:40:14.948Z,25.50
2022-09-04T16:43:16.148Z,24.90
2022-09-04T16:45:50.918Z,24.30
2022-09-04T16:48:38.784Z,23.70
2022-09-04T16:51:39.195Z,23.40
2022-09-04T16:54:08.899Z,23.40
2022-09-04T16:57:12.588Z,23.20
2022-09-04T16:59:50.890Z,23.30
2022-09-04T17:02:35.736Z,24.30
2022-09-04T17:05:51.888Z,25.90
2022-09-04T17:08:42.457Z,27.10
2022-09-04T17:11:25.557Z,27.30
2022-09-04T17:14:19.664Z,28.80
2022-09-04T17:17:08.967Z,28.40
2022-09-04T17:23:34.082Z,27.50
2022-09-04T17:28:59.189Z,27.60
2022-09-04T17:29:19.374Z,27.40
2022-09-04T17:29:34.543Z,26.30
2022-09-04T17:32:28.313Z,26.40
2022-09-04T17:40:35.189Z,25.90
2022-09-04T17:40:50.004Z,25.50
2022-09-04T17:41:59.323Z,25.20
2022-09-04T17:45:02.171Z,24.60
2022-09-04T17:47:33.590Z,24.30
2022-09-04T17:50:03.305Z,23.90
2022-09-04T17:52:55.961Z,24.00
2022-09-04T17:55:25.224Z,23.70
2022-09-04T17:58:35.209Z,23.90
2022-09-04T18:01:22.702Z,23.90
2022-09-04T18:04:21.888Z,23.60
2022-09-04T18:07:28.769Z,23.50
2022-09-04T18:10:36.005Z,23.40
2022-09-04T18:13:36.826Z,23.60
2022-09-04T18:16:12.322Z,23.80
2022-09-04T18:18:47.828Z,23.80
2022-09-04T18:21:40.396Z,23.90
2022-09-04T18:24:17.209Z,24.40
2022-09-04T18:27:00.941Z,24.70
2022-09-04T18:34:30.976Z,24.80
2022-09-04T18:37:23.986Z,25.90
2022-09-04T18:37:26.393Z,25.70
2022-09-04T18:39:15.150Z,26.50
2022-09-04T18:50:21.096Z,26.30
2022-09-04T18:50:36.248Z,25.90
2022-09-04T18:50:50.871Z,25.80
2022-09-04T18:51:18.743Z,25.90
2022-09-04T18:53:52.327Z,25.50
2022-09-04T18:56:27.323Z,25.40
2022-09-04T18:59:25.540Z,25.40
2022-09-04T19:02:06.917Z,25.40
2022-09-04T19:04:58.801Z,25.10
2022-09-04T19:07:44.493Z,25.00
2022-09-04T19:10:28.927Z,25.00
2022-09-04T19:13:02.661Z,25.10
2022-09-04T19:15:37.669Z,25.10
2022-09-04T19:18:22.732Z,25.10
2022-09-04T19:21:04.829Z,25.20
2022-09-04T19:23:40.505Z,25.40
2022-09-04T19:26:21.900Z,25.40
2022-09-04T19:28:55.487Z,25.40
2022-09-04T19:31:33.732Z,25.40
2022-09-04T19:34:14.248Z,25.50
2022-09-04T19:36:56.056Z,25.50
2022-09-04T19:44:21.538Z,25.50
2022-09-04T19:46:09.321Z,25.80
2022-09-04T19:46:40.133Z,26.30
2022-09-04T19:53:18.395Z,26.10
2022-09-04T19:53:32.365Z,26.30
2022-09-04T19:56:32.554Z,26.30
2022-09-04T19:59:21.150Z,26.60
2022-09-04T20:02:02.839Z,26.80
2022-09-04T20:04:35.004Z,26.40
2022-09-04T20:07:13.281Z,26.60
2022-09-04T20:09:41.599Z,26.60
2022-09-04T20:12:19.472Z,26.80
2022-09-04T20:14:55.894Z,26.80
2022-09-04T20:17:41.721Z,26.80
2022-09-04T20:20:24.454Z,26.60
2022-09-04T20:23:34.384Z,26.60
2022-09-04T20:26:08.063Z,26.60
2022-09-04T20:29:14.003Z,26.60
2022-09-04T20:32:04.960Z,26.60
2022-09-04T20:34:39.738Z,26.70
2022-09-04T20:37:27.464Z,26.80
2022-09-04T20:40:32.689Z,26.50
2022-09-04T20:43:06.000Z,26.70
2022-09-04T20:48:43.390Z,26.70
2022-09-04T20:52:51.516Z,26.50
2022-09-04T20:53:00.572Z,26.60
2022-09-04T20:54:52.642Z,26.70
2022-09-04T21:02:41.017Z,26.60
2022-09-04T21:03:11.656Z,26.80
2022-09-04T21:03:33.873Z,26.90
2022-09-04T21:06:17.677Z,27.00
2022-09-04T21:08:58.405Z,27.00
2022-09-04T21:11:40.900Z,27.00
2022-09-04T21:14:19.494Z,27.20
2022-09-04T21:17:29.882Z,27.40
2022-09-04T21:21:00.318Z,27.20
2022-09-04T21:23:56.463Z,27.10
2022-09-04T21:26:58.032Z,27.30
2022-09-04T21:29:51.076Z,27.50
2022-09-04T21:32:47.480Z,27.70
2022-09-04T21:36:11.670Z,27.70
2022-09-04T21:38:56.993Z,27.70
2022-09-04T21:42:16.612Z,28.00
2022-09-04T21:44:54.803Z,28.00
2022-09-04T21:47:44.979Z,28.10
2022-09-04T21:50:31.418Z,28.20
2022-09-04T21:53:20.927Z,28.00
2022-09-04T22:02:31.635Z,27.90
2022-09-04T22:02:39.477Z,27.80
2022-09-04T22:02:59.254Z,27.70
2022-09-04T22:05:56.333Z,27.60
2022-09-04T22:13:26.708Z,27.50
2022-09-04T22:13:41.778Z,27.70
2022-09-04T22:14:58.172Z,27.70
2022-09-04T22:17:44.871Z,27.80
2022-09-04T22:20:19.499Z,27.90
2022-09-04T22:22:47.853Z,27.80
2022-09-04T22:25:46.577Z,27.80
2022-09-04T22:28:21.136Z,27.80
2022-09-04T22:31:15.588Z,27.70
2022-09-04T22:34:16.448Z,27.90
2022-09-04T22:37:00.475Z,27.90
2022-09-04T22:39:44.387Z,28.00
2022-09-04T22:42:20.760Z,27.90
2022-09-04T22:45:26.196Z,28.00
2022-09-04T22:48:11.213Z,27.90
2022-09-04T22:50:50.588Z,28.10
2022-09-04T22:53:56.819Z,28.20
2022-09-04T22:56:40.482Z,28.20
2022-09-04T22:59:26.760Z,28.20
2022-09-04T23:02:15.990Z,28.40
2022-09-04T23:05:07.674Z,28.30
2022-09-04T23:13:44.933Z,28.30
2022-09-04T23:14:02.834Z,28.10
2022-09-04T23:14:17.643Z,28.20
2022-09-04T23:16:47.408Z,28.30
2022-09-04T23:24:08.753Z,28.20
2022-09-04T23:26:49.976Z,28.40
2022-09-04T23:26:50.540Z,28.40
2022-09-04T23:29:34.670Z,28.50
2022-09-04T23:32:23.716Z,28.60
2022-09-04T23:35:16.551Z,28.60
2022-09-04T23:38:00.582Z,28.60
2022-09-04T23:40:38.074Z,28.60
2022-09-04T23:43:33.524Z,28.50
2022-09-04T23:46:18.845Z,28.30
2022-09-04T23:48:50.263Z,28.50
2022-09-04T23:51:21.744Z,28.40
2022-09-04T23:54:21.776Z,28.30
2022-09-04T23:57:08.158Z,28.30
2022-09-04T23:59:58.073Z,28.40
